METAR Data
IDs: Format: Raw Decoded Include TAF

Data at: 1537 UTC 26 Apr 2019

KAXX 261515Z AUTO 26015G19KT 10SM 12/04 A3031 RMK AO2 T01200035
KAXX 261455Z AUTO 23007KT 160V280 10SM 10/04 A3031 RMK AO2 T01000040
KAXX 261435Z AUTO 18007KT 10SM 09/04 A3033 RMK AO2 T00890038
KAXX 261415Z AUTO 18008KT 10SM 07/04 A3033 RMK AO2 T00740035
KAXX 261355Z AUTO 18010KT 10SM 07/03 A3033 RMK AO2 T00700033
KAXX 261335Z AUTO 18010KT 10SM 07/03 A3034 RMK AO2 T00650032
KAXX 261315Z AUTO 00000KT 10SM 04/02 A3034 RMK AO2 T00410021
KAXX 261255Z AUTO 00000KT 10SM 02/00 A3033 RMK AO2 T00160000
KAXX 261235Z AUTO 16005KT 10SM 02/00 A3033 RMK AO2 T00160001
KAXX 261215Z AUTO 00000KT 10SM 03/01 A3033 RMK AO2 T00290008
KAXX 261155Z AUTO 18003KT 10SM 04/01 A3033 RMK AO2 T00360014 10060 20028
KAXX 261135Z AUTO 00000KT 10SM 04/02 A3033 RMK AO2 T00360016
KAXX 261115Z AUTO 00000KT 10SM 03/01 A3033 RMK AO2 T00300013
KAXX 261055Z AUTO 23005KT 10SM 04/02 A3033 RMK AO2 T00350018
KAXX 261035Z AUTO 22006KT 10SM 04/02 A3033 RMK AO2 T00350019
KAXX 261015Z AUTO 22009KT 10SM 04/02 A3033 RMK AO2 T00360019
KAXX 260955Z AUTO 21007KT 10SM 04/02 A3033 RMK AO2 T00370020
KAXX 260935Z AUTO 21008KT 10SM 04/02 A3033 RMK AO2 T00370017
KAXX 260915Z AUTO 21008KT 10SM 04/02 A3033 RMK AO2 T00400017
KAXX 260855Z AUTO 19008KT 10SM 04/02 A3033 RMK AO2 T00440017
KAXX 260835Z AUTO 19006KT 10SM 05/02 A3033 RMK AO2 T00480018
KAXX 260815Z AUTO 20007KT 10SM 06/02 A3034 RMK AO2 T00550020
KAXX 260755Z AUTO 21005KT 10SM 06/02 A3035 RMK AO2 T00560019
KAXX 260735Z AUTO 18005KT 10SM 06/02 A3035 RMK AO2 T00550017
KAXX 260715Z AUTO 20010KT 10SM 05/02 A3036 RMK AO2 T00530016
KAXX 260655Z AUTO 21008KT 10SM 06/02 A3036 RMK AO2 T00550016
KAXX 260635Z AUTO 19010KT 10SM 06/02 A3037 RMK AO2 T00570017
KAXX 260615Z AUTO 19012G18KT 10SM 06/02 A3037 RMK AO2 T00590020
KAXX 260555Z AUTO 19013G20KT 10SM 06/03 A3037 RMK AO2 T00600025 10125 20060 401631030
KAXX 260535Z AUTO 18012G15KT 10SM 06/03 A3037 RMK AO2 T00610025
KAXX 260515Z AUTO 18010G14KT 10SM 06/03 A3038 RMK AO2 T00640027
KAXX 260455Z AUTO 19009G15KT 10SM 07/03 A3038 RMK AO2 T00660028
KAXX 260435Z AUTO 20010KT 10SM 07/04 A3038 RMK AO2 T00700037
KAXX 260415Z AUTO 26003KT 10SM 06/04 A3037 RMK AO2 T00600038
KAXX 260355Z AUTO 00000KT 10SM 07/04 A3037 RMK AO2 T00700042
KAXX 260330Z AUTO 02009KT 10SM -RA 09/05 A3037 RMK AO2 T00860046
KAXX 260315Z AUTO 33003KT 10SM -RA 08/04 A3035 RMK AO2 T00840041
KAXX 260255Z AUTO 35011KT 10SM 09/04 A3035 RMK AO2 T00870044
KAXX 260235Z AUTO 03007KT 10SM 09/05 A3033 RMK AO2 T00930045
KAXX 260215Z AUTO 19009KT 160V220 10SM -RA 10/04 A3031 RMK AO2 T00950037
KAXX 260155Z AUTO 20008KT 10SM 10/04 A3030 RMK AO2 T00950035
KAXX 260135Z AUTO 18006KT 10SM 10/03 A3029 RMK AO2 T00950034
KAXX 260115Z AUTO 19009KT 10SM 10/04 A3028 RMK AO2 T00970035
KAXX 260055Z AUTO 19012KT 10SM 10/03 A3028 RMK AO2 T01040026
KAXX 260035Z AUTO 17015KT 10SM 11/03 A3029 RMK AO2 T01100027
KAXX 260015Z AUTO 17010KT 10SM 12/03 A3028 RMK AO2 T01180032
KAXX 252355Z AUTO 17015G21KT 10SM -RA 12/04 A3029 RMK AO2 T01240043 10163 20120
KAXX 252335Z AUTO 17016KT 10SM 12/03 A3029 RMK AO2 T01230025
KAXX 252315Z AUTO 17015G20KT 10SM 13/02 A3028 RMK AO2 T01280024
KAXX 252255Z AUTO 16016G21KT 10SM 14/03 A3028 RMK AO2 T01360026
KAXX 252235Z AUTO 18017KT 10SM 13/03 A3028 RMK AO2 T01260025
KAXX 252215Z AUTO 17015G22KT 10SM 13/03 A3027 RMK AO2 T01330026
KAXX 252155Z AUTO 18017G21KT 10SM 14/02 A3026 RMK AO2 T01350022
KAXX 252135Z AUTO 17015G22KT 10SM 14/02 A3027 RMK AO2 T01380018
KAXX 252115Z AUTO 18015G18KT 10SM 14/02 A3026 RMK AO2 T01400015
KAXX 252055Z AUTO 17016G22KT 10SM 14/02 A3026 RMK AO2 T01420016
KAXX 252035Z AUTO 17018G23KT 10SM 16/02 A3026 RMK AO2 T01570015
KAXX 252015Z AUTO 18019G25KT 10SM 14/02 A3026 RMK AO2 T01410016
KAXX 251955Z AUTO 17020G24KT 10SM 16/02 A3026 RMK AO2 T01560015
KAXX 251935Z AUTO 17017G23KT 10SM 16/02 A3025 RMK AO2 T01590017
KAXX 251915Z AUTO 18013KT 10SM 16/01 A3025 RMK AO2 T01570010
KAXX 251855Z AUTO 21011G19KT 10SM 15/00 A3025 RMK AO2 T01490000
KAXX 251835Z AUTO 28009KT 10SM 16/M01 A3025 RMK AO2 T01551014
KAXX 251815Z AUTO 29009KT 10SM 15/M02 A3025 RMK AO2 T01491020
KAXX 251755Z AUTO 28010G14KT 10SM 14/M02 A3025 RMK AO2 T01401021 10156 21030
KAXX 251735Z AUTO 00000KT 10SM 16/M02 A3024 RMK AO2 T01561019
KAXX 251715Z AUTO 00000KT 10SM 15/M02 A3025 RMK AO2 T01461022
KAXX 251655Z AUTO 09004KT 10SM 14/M02 A3025 RMK AO2 T01371024
KAXX 251635Z AUTO 07003KT 10SM 13/M02 A3025 RMK AO2 T01311023
KAXX 251615Z AUTO 00000KT 10SM 12/M02 A3025 RMK AO2 T01171016
KAXX 251555Z AUTO 00000KT 10SM 11/00 A3025 RMK AO2 T01100001
KAXX 251535Z AUTO 00000KT 10SM 10/01 A3025 RMK AO2 T01010007
KAXX 251515Z AUTO 00000KT 10SM 09/00 A3025 RMK AO2 T00871002
KAXX 251455Z AUTO 00000KT 10SM 07/00 A3024 RMK AO2 T00740001
KAXX 251435Z AUTO 00000KT 10SM 06/01 A3024 RMK AO2 T00550009
KAXX 251415Z AUTO 00000KT 10SM 04/00 A3024 RMK AO2 T00370000
KAXX 251355Z AUTO 00000KT 10SM 02/00 A3023 RMK AO2 T00240000
KAXX 251335Z AUTO 00000KT 10SM 00/M01 A3023 RMK AO2 T00011011
KAXX 251315Z AUTO 00000KT 10SM 00/M01 A3023 RMK AO2 T10051014
KAXX 251255Z AUTO 00000KT 10SM M02/M02 A3022 RMK AO2 T10161024
KAXX 251235Z AUTO 00000KT 10SM M03/M04 A3021 RMK AO2 T10301037
KAXX 251215Z AUTO 00000KT 10SM M03/M03 A3021 RMK AO2 T10261032
KAXX 251155Z AUTO 00000KT 10SM M02/M03 A3020 RMK AO2 T10251031 10020 21030
KAXX 251135Z AUTO 00000KT 10SM M03/M03 A3020 RMK AO2 T10271033
KAXX 251115Z AUTO 17004KT 10SM M02/M03 A3020 RMK AO2 T10251033
KAXX 251055Z AUTO 00000KT 10SM M02/M03 A3019 RMK AO2 T10221029
KAXX 251035Z AUTO 00000KT 10SM M02/M03 A3018 RMK AO2 T10231031
KAXX 251015Z AUTO 00000KT 10SM M02/M03 A3018 RMK AO2 T10201026
KAXX 250955Z AUTO 20004KT 10SM M02/M02 A3017 RMK AO2 T10161025
KAXX 250935Z AUTO 00000KT 10SM M02/M02 A3016 RMK AO2 T10171025
KAXX 250915Z AUTO 16005KT 10SM M01/M02 A3015 RMK AO2 T10151023
KAXX 250855Z AUTO 00000KT 10SM M01/M02 A3015 RMK AO2 T10131022
KAXX 250835Z AUTO 00000KT 10SM M01/M02 A3015 RMK AO2 T10091018
KAXX 250815Z AUTO 00000KT 10SM M01/M02 A3015 RMK AO2 T10101020
KAXX 250755Z AUTO 00000KT 10SM M01/M02 A3015 RMK AO2 T10071016
KAXX 250735Z AUTO 00000KT 10SM 00/M01 A3015 RMK AO2 T10011013
KAXX 250715Z AUTO 08003KT 10SM 00/M01 A3015 RMK AO2 T00001011
KAXX 250655Z AUTO 00000KT 10SM 00/M01 A3015 RMK AO2 T00011008
KAXX 250635Z AUTO 00000KT 10SM 01/00 A3014 RMK AO2 T00101004
KAXX 250615Z AUTO 00000KT 10SM 01/00 A3015 RMK AO2 T00111004
KAXX 250555Z AUTO 00000KT 10SM 02/00 A3015 RMK AO2 T00201001 10145 20017 401461006
KAXX 250535Z AUTO 00000KT 10SM 02/00 A3014 RMK AO2 T00171001
KAXX 250515Z AUTO 00000KT 10SM 03/00 A3014 RMK AO2 T00280003
KAXX 250455Z AUTO 00000KT 10SM 04/00 A3014 RMK AO2 T00350002
KAXX 250435Z AUTO 00000KT 10SM 04/00 A3014 RMK AO2 T00400000
KAXX 250415Z AUTO 31003KT 10SM 04/01 A3014 RMK AO2 T00390006
KAXX 250355Z AUTO 00000KT 10SM 04/01 A3014 RMK AO2 T00410005